Time;durP1;ratioP1;P1;durP2;ratioP2;P2;SDS_P1;SDS_P2;PMS_P1;PMS_P2;Temp;Humidity;BMP_temperature;BMP_pressure;BME280_temperature;BME280_humidity;BME280_pressure;Samples;Min_cycle;Max_cycle;Signal;HPM_P1;HPM_P2
2024/01/07 00:01:32;;;;;;;;;11.00;9.67;;;;;7.61;68.90;101365.38;4975560;28;45618;-42
2024/01/07 00:03:58;;;;;;;;;7.00;4.00;;;;;7.61;68.22;101363.56;4975060;28;45489;-43
2024/01/07 00:06:23;;;;;;;;;10.00;8.00;;;;;7.63;68.51;101368.78;4975466;28;45493;-49
2024/01/07 00:08:48;;;;;;;;;13.00;9.75;;;;;7.62;69.53;101377.66;4975213;28;45469;-44
2024/01/07 00:11:14;;;;;;;;;21.25;15.50;;;;;7.57;68.69;101374.50;4974753;28;46040;-43
2024/01/07 00:13:39;;;;;;;;;19.00;13.75;;;;;7.57;69.29;101378.00;4975212;28;45439;-43
2024/01/07 00:16:05;;;;;;;;;10.33;9.00;;;;;7.54;68.76;101372.91;4975249;28;45419;-47
2024/01/07 00:18:30;;;;;;;;;9.00;6.00;;;;;7.49;68.69;101378.53;4975184;28;45474;-54
2024/01/07 00:20:55;;;;;;;;;12.50;9.50;;;;;7.57;68.88;101390.38;4974738;28;45976;-44
2024/01/07 00:23:21;;;;;;;;;18.25;17.00;;;;;7.56;69.02;101378.13;4974772;28;45427;-41
2024/01/07 00:25:47;;;;;;;;;5.67;5.00;;;;;7.55;68.23;101381.72;4974792;28;45873;-48
2024/01/07 00:28:12;;;;;;;;;10.33;9.00;;;;;7.52;67.94;101381.94;4975198;28;45514;-43
2024/01/07 00:30:38;;;;;;;;;12.67;9.00;;;;;7.53;68.87;101387.13;4973563;28;46995;-45
2024/01/07 00:33:03;;;;;;;;;8.00;5.00;;;;;7.52;68.66;101380.13;4974682;28;45356;-43
2024/01/07 00:35:29;;;;;;;;;12.33;9.33;;;;;7.49;67.50;101380.34;4974934;28;45528;-51
2024/01/07 00:37:56;;;;;;;;;8.67;6.00;;;;;7.50;68.47;101384.72;4974950;28;45331;-45
2024/01/07 00:40:22;;;;;;;;;7.33;3.67;;;;;7.36;68.20;101366.31;4974121;28;46247;-45
2024/01/07 00:42:47;;;;;;;;;11.00;9.67;;;;;7.48;68.51;101391.91;4974454;28;45425;-43
2024/01/07 00:45:13;;;;;;;;;12.00;9.00;;;;;7.46;68.81;101380.59;4974623;28;45504;-43
2024/01/07 00:47:38;;;;;;;;;8.33;6.00;;;;;7.47;68.68;101384.91;4974726;28;45516;-46
2024/01/07 00:50:04;;;;;;;;;4.00;4.00;;;;;7.48;68.25;101394.53;4974538;28;46325;-45
2024/01/07 00:52:29;;;;;;;;;9.00;6.00;;;;;7.46;68.37;101391.19;4974393;28;45338;-43
2024/01/07 00:54:54;;;;;;;;;15.25;12.75;;;;;7.48;67.70;101392.75;4974392;28;45445;-45
2024/01/07 00:57:19;;;;;;;;;24.25;13.50;;;;;7.49;68.52;101390.94;4974395;28;45495;-43
2024/01/07 00:59:45;;;;;;;;;14.33;6.67;;;;;7.51;68.55;101394.34;4974035;28;45518;-44
2024/01/07 01:02:10;;;;;;;;;6.67;5.00;;;;;7.49;68.99;101399.72;4974432;28;45412;-55
2024/01/07 01:04:38;;;;;;;;;10.67;9.00;;;;;7.49;67.77;101397.06;4976538;28;45716;-43
2024/01/07 01:07:04;;;;;;;;;12.00;7.33;;;;;7.48;68.93;101395.38;4977338;28;45315;-42
2024/01/07 01:09:29;;;;;;;;;19.00;10.00;;;;;7.48;67.94;101391.91;4976821;28;46306;-43
2024/01/07 01:11:54;;;;;;;;;9.00;7.33;;;;;7.46;67.90;101391.19;4976949;28;45317;-43
2024/01/07 01:14:20;;;;;;;;;3.67;3.33;;;;;7.43;67.81;101392.22;4977410;28;45497;-44
2024/01/07 01:16:45;;;;;;;;;9.67;8.00;;;;;7.41;67.65;101396.78;4977279;28;45284;-44
2024/01/07 01:19:10;;;;;;;;;16.33;9.00;;;;;7.39;68.29;101400.50;4976795;28;46278;-45
2024/01/07 01:21:36;;;;;;;;;7.00;7.00;;;;;7.36;68.25;101406.00;4977163;28;45351;-44
2024/01/07 01:24:01;;;;;;;;;12.00;6.67;;;;;7.38;68.15;101409.41;4977049;28;45337;-47
2024/01/07 01:26:27;;;;;;;;;9.33;7.67;;;;;7.36;67.51;101416.59;4977213;28;45366;-42
2024/01/07 01:28:52;;;;;;;;;7.67;5.00;;;;;7.34;67.77;101415.88;4976726;28;46243;-45
2024/01/07 01:31:17;;;;;;;;;7.33;5.00;;;;;7.33;68.33;101417.69;4976807;28;45346;-43
2024/01/07 01:33:42;;;;;;;;;6.00;2.00;;;;;7.28;68.29;101417.13;4976932;28;45530;-43
2024/01/07 01:36:08;;;;;;;;;12.00;6.25;;;;;7.31;67.09;101416.09;4976792;28;45403;-46
2024/01/07 01:38:34;;;;;;;;;6.33;5.33;;;;;7.28;67.14;101421.59;4976672;28;46379;-44
2024/01/07 01:41:00;;;;;;;;;8.25;7.50;;;;;7.28;67.50;101432.19;4975137;28;45389;-57
2024/01/07 01:43:27;;;;;;;;;10.00;10.00;;;;;7.26;67.45;101432.28;4976810;28;45919;-56
2024/01/07 01:45:53;;;;;;;;;11.00;7.00;;;;;7.20;67.03;101422.97;4976971;28;45236;-45
2024/01/07 01:48:19;;;;;;;;;11.00;8.67;;;;;7.18;66.77;101427.53;4976376;28;45418;-44
2024/01/07 01:50:46;;;;;;;;;9.00;9.00;;;;;7.09;67.78;101420.25;4976738;28;45545;-49
2024/01/07 01:53:12;;;;;;;;;10.67;8.00;;;;;7.12;67.31;101427.97;4976851;28;45367;-43
2024/01/07 01:55:37;;;;;;;;;10.67;8.33;;;;;7.10;67.16;101434.31;4976800;28;45371;-44
2024/01/07 01:58:04;;;;;;;;;5.00;5.00;;;;;7.09;67.89;101444.06;4976553;28;46172;-42
2024/01/07 02:00:30;;;;;;;;;8.50;8.00;;;;;7.04;67.25;101435.59;4977367;28;45405;-44
2024/01/07 02:02:55;;;;;;;;;8.00;5.00;;;;;7.12;67.83;101442.97;4980066;28;45343;-43
2024/01/07 02:05:21;;;;;;;;;11.00;6.00;;;;;7.12;68.19;101454.44;4980182;28;45446;-44
2024/01/07 02:07:47;;;;;;;;;8.00;5.50;;;;;7.03;67.78;101439.19;4979860;28;46819;-44
2024/01/07 02:10:13;;;;;;;;;13.50;6.00;;;;;7.07;67.76;101445.13;4980114;28;45335;-44
2024/01/07 02:12:38;;;;;;;;;6.00;5.00;;;;;7.12;67.58;101449.16;4980472;28;45981;-44
2024/01/07 02:15:04;;;;;;;;;6.00;4.00;;;;;7.12;67.20;101456.22;4980001;28;45237;-43
2024/01/07 02:17:29;;;;;;;;;5.00;4.33;;;;;7.13;67.48;101452.63;4979720;28;45477;-43
2024/01/07 02:19:55;;;;;;;;;5.67;3.67;;;;;7.11;67.21;101452.72;4979767;28;45461;-44
2024/01/07 02:22:20;;;;;;;;;6.67;5.00;;;;;7.06;67.12;101446.06;4979992;28;45374;-44
2024/01/07 02:24:46;;;;;;;;;4.67;2.00;;;;;6.83;67.77;101408.84;4980024;28;45378;-43
2024/01/07 02:27:11;;;;;;;;;3.67;1.00;;;;;7.04;67.45;101454.13;4979697;28;47101;-44
2024/01/07 02:29:37;;;;;;;;;4.25;4.25;;;;;7.03;67.74;101455.06;4979457;28;45356;-44
2024/01/07 02:32:02;;;;;;;;;13.33;8.33;;;;;7.04;67.58;101458.53;4979774;28;45346;-43
2024/01/07 02:34:27;;;;;;;;;4.00;2.00;;;;;7.04;67.12;101458.53;4979598;28;45482;-42
2024/01/07 02:36:53;;;;;;;;;4.00;2.00;;;;;6.98;67.39;101447.44;4979333;28;47952;-43
2024/01/07 02:39:18;;;;;;;;;2.00;2.00;;;;;7.02;67.39;101455.19;4979162;28;45990;-44
2024/01/07 02:41:44;;;;;;;;;5.00;1.00;;;;;6.98;67.20;101451.88;4979578;28;45371;-43
2024/01/07 02:44:09;;;;;;;;;1.33;1.33;;;;;6.95;67.23;101449.44;4979840;28;45362;-45
2024/01/07 02:46:35;;;;;;;;;3.33;1.67;;;;;7.00;67.25;101447.34;4979278;28;46052;-43
2024/01/07 02:49:00;;;;;;;;;5.00;2.67;;;;;7.00;66.51;101452.66;4979187;28;45376;-44
2024/01/07 02:51:25;;;;;;;;;4.00;4.00;;;;;7.00;66.86;101460.59;4979431;28;45367;-44
2024/01/07 02:53:50;;;;;;;;;6.33;4.00;;;;;6.99;66.84;101453.56;4979501;28;45387;-43
2024/01/07 02:56:16;;;;;;;;;8.67;5.67;;;;;6.95;66.87;101460.03;4979237;28;46130;-43
2024/01/07 02:58:41;;;;;;;;;5.00;5.00;;;;;6.93;66.97;101454.00;4979282;28;45334;-42
2024/01/07 03:01:10;;;;;;;;;1.00;1.00;;;;;6.93;66.18;101461.94;4979234;28;45359;-42
2024/01/07 03:03:35;;;;;;;;;8.75;5.50;;;;;6.92;66.54;101463.75;4979336;28;45417;-46
2024/01/07 03:06:00;;;;;;;;;8.75;3.00;;;;;6.93;66.24;101462.78;4978780;28;45478;-45
2024/01/07 03:08:26;;;;;;;;;7.00;2.50;;;;;6.92;66.91;101460.25;4979171;28;45333;-43
2024/01/07 03:10:51;;;;;;;;;4.00;1.00;;;;;6.92;66.59;101460.25;4979074;28;45535;-41
2024/01/07 03:13:17;;;;;;;;;3.33;3.33;;;;;6.96;66.54;101453.81;4978107;28;45490;-43
2024/01/07 03:15:42;;;;;;;;;4.67;2.00;;;;;6.97;66.52;101468.72;4979138;28;46194;-46
2024/01/07 03:18:07;;;;;;;;;10.50;5.75;;;;;6.98;67.03;101467.75;4978525;28;45685;-42
2024/01/07 03:20:33;;;;;;;;;5.00;2.00;;;;;6.99;66.29;101464.16;4978696;28;45446;-41
2024/01/07 03:23:00;;;;;;;;;8.50;2.75;;;;;7.00;66.92;101472.00;4978989;28;45376;-43
2024/01/07 03:25:25;;;;;;;;;4.25;3.50;;;;;7.01;66.30;101467.56;4978634;28;46117;-42
2024/01/07 03:27:51;;;;;;;;;1.00;1.00;;;;;6.99;66.26;101467.69;4977253;28;49835;-42
2024/01/07 03:30:16;;;;;;;;;9.00;2.00;;;;;6.92;66.44;101465.56;4978794;28;45363;-43
2024/01/07 03:32:41;;;;;;;;;1.33;1.33;;;;;6.89;66.36;101474.53;4979075;28;45221;-44
2024/01/07 03:35:08;;;;;;;;;3.33;1.00;;;;;6.82;66.45;101462.66;4978376;28;46143;-42
2024/01/07 03:37:34;;;;;;;;;4.67;2.00;;;;;6.71;66.42;101455.50;4978634;28;45194;-42
2024/01/07 03:39:59;;;;;;;;;6.33;2.00;;;;;6.74;66.56;101471.16;4978440;28;45272;-44
2024/01/07 03:42:25;;;;;;;;;2.00;2.00;;;;;6.68;66.59;101460.13;4978461;28;45383;-41
2024/01/07 03:44:50;;;;;;;;;2.00;2.00;;;;;6.66;66.74;101457.59;4978522;28;46183;-46
2024/01/07 03:47:16;;;;;;;;;1.33;1.00;;;;;6.68;66.51;101466.25;4978501;28;45332;-45
2024/01/07 03:49:41;;;;;;;;;4.00;2.00;;;;;6.68;66.20;101462.78;4978471;28;45489;-43
2024/01/07 03:52:07;;;;;;;;;1.50;1.50;;;;;6.70;66.14;101474.94;4978817;28;45554;-44
2024/01/07 03:54:33;;;;;;;;;7.50;5.00;;;;;6.71;65.80;101481.09;4977977;28;46254;-43
2024/01/07 03:56:58;;;;;;;;;1.50;1.50;;;;;6.71;65.93;101471.34;4978544;28;45502;-43
2024/01/07 03:59:25;;;;;;;;;6.50;2.75;;;;;6.71;65.78;101465.22;4978423;28;45437;-42
2024/01/07 04:01:51;;;;;;;;;1.00;1.00;;;;;6.69;65.87;101470.59;4978438;28;45358;-44
2024/01/07 04:04:16;;;;;;;;;5.00;3.50;;;;;6.74;66.12;101483.50;4977907;28;45474;-44
2024/01/07 04:06:42;;;;;;;;;2.00;2.00;;;;;6.72;65.91;101469.53;4978013;28;47925;-45
2024/01/07 04:09:08;;;;;;;;;4.00;1.50;;;;;6.74;65.82;101480.84;4978284;28;45335;-43
2024/01/07 04:11:38;;;;;;;;;1.67;1.67;;;;;6.71;65.44;101481.94;4978420;28;45236;-46
2024/01/07 04:14:04;;;;;;;;;2.67;2.67;;;;;6.74;65.00;101481.72;4977707;28;46369;-43
2024/01/07 04:16:29;;;;;;;;;8.00;1.67;;;;;6.75;65.44;101477.28;4977912;28;45368;-42
2024/01/07 04:18:54;;;;;;;;;1.00;1.00;;;;;6.76;65.08;101478.97;4978080;28;45369;-44
2024/01/07 04:21:20;;;;;;;;;0.33;0.33;;;;;6.78;65.31;101482.34;4978023;28;45435;-43
2024/01/07 04:23:45;;;;;;;;;5.00;2.00;;;;;6.75;64.47;101488.69;4977321;28;45350;-44
2024/01/07 04:26:11;;;;;;;;;4.00;1.00;;;;;6.74;65.27;101478.22;4977884;28;45381;-44
2024/01/07 04:28:40;;;;;;;;;1.67;1.67;;;;;6.73;64.80;101490.59;4977681;28;46218;-43
2024/01/07 04:31:06;;;;;;;;;4.00;1.00;;;;;6.72;65.48;101485.41;4976728;28;45575;-44
2024/01/07 04:33:31;;;;;;;;;2.00;2.00;;;;;6.70;65.25;101490.81;4977694;28;45371;-43
2024/01/07 04:35:58;;;;;;;;;1.00;1.00;;;;;6.67;64.71;101488.38;4977547;28;45402;-44
2024/01/07 04:38:24;;;;;;;;;1.33;1.00;;;;;6.66;65.42;101497.25;4977693;28;45339;-43
2024/01/07 04:40:50;;;;;;;;;0.00;0.00;;;;;6.63;64.74;101497.47;4977544;28;45289;-44
2024/01/07 04:43:15;;;;;;;;;4.00;1.33;;;;;6.62;65.53;101503.69;4977340;28;45515;-44
2024/01/07 04:45:40;;;;;;;;;4.00;4.00;;;;;6.62;64.90;101501.06;4977557;28;45450;-43
2024/01/07 04:48:06;;;;;;;;;2.00;2.00;;;;;6.64;65.06;101498.31;4977718;28;45910;-43
2024/01/07 04:50:31;;;;;;;;;2.00;2.00;;;;;6.64;64.89;101508.88;4977522;28;45425;-44
2024/01/07 04:52:57;;;;;;;;;3.33;1.00;;;;;6.66;65.12;101502.53;4977397;28;46715;-42
2024/01/07 04:55:22;;;;;;;;;1.67;1.67;;;;;6.68;65.30;101505.06;4977518;28;45265;-44
2024/01/07 04:57:47;;;;;;;;;1.00;1.00;;;;;6.69;64.72;101496.19;4977506;28;45350;-44
2024/01/07 05:00:13;;;;;;;;;2.67;1.00;;;;;6.70;64.69;101506.69;4977474;28;45259;-43
2024/01/07 05:02:38;;;;;;;;;2.00;2.00;;;;;6.69;64.35;101504.97;4977040;28;45410;-44
2024/01/07 05:05:04;;;;;;;;;2.67;1.33;;;;;6.69;65.21;101502.31;4977372;28;45343;-44
2024/01/07 05:07:29;;;;;;;;;1.67;0.67;;;;;6.68;65.30;101497.16;4977731;28;45814;-44
2024/01/07 05:09:54;;;;;;;;;1.33;1.33;;;;;6.65;64.74;101495.53;4977470;28;45257;-45
2024/01/07 05:12:20;;;;;;;;;1.33;1.33;;;;;6.69;65.18;101517.34;4976966;28;49465;-44
2024/01/07 05:14:46;;;;;;;;;1.00;1.00;;;;;6.68;64.71;101513.84;4977141;28;45424;-43
2024/01/07 05:17:12;;;;;;;;;4.25;1.25;;;;;6.68;64.76;101510.38;4977383;28;45400;-44
2024/01/07 05:19:40;;;;;;;;;4.00;4.00;;;;;6.66;64.78;101507.00;4977252;28;45320;-44
2024/01/07 05:22:05;;;;;;;;;18.25;15.00;;;;;6.68;64.94;101520.94;4976686;28;45468;-44
2024/01/07 05:24:30;;;;;;;;;4.00;1.00;;;;;6.64;64.81;101509.72;4976796;28;45354;-44
2024/01/07 05:26:56;;;;;;;;;4.00;2.00;;;;;6.65;65.17;101514.03;4977031;28;45315;-45
2024/01/07 05:29:22;;;;;;;;;3.33;1.67;;;;;6.65;64.89;101513.22;4977411;28;45551;-44
2024/01/07 05:31:47;;;;;;;;;1.00;1.00;;;;;6.65;65.66;101518.50;4976817;28;47102;-44
2024/01/07 05:34:12;;;;;;;;;1.00;1.00;;;;;6.60;65.06;101515.31;4977000;28;45369;-44
2024/01/07 05:36:38;;;;;;;;;4.00;1.00;;;;;6.56;64.88;101506.72;4976034;28;45414;-46
2024/01/07 05:39:04;;;;;;;;;2.00;2.00;;;;;6.61;65.33;101530.22;4977149;28;45396;-44
2024/01/07 05:41:29;;;;;;;;;1.00;1.00;;;;;6.60;65.62;101524.09;4976702;28;46108;-44
2024/01/07 05:43:54;;;;;;;;;2.00;2.00;;;;;6.61;65.11;101527.56;4976678;28;45596;-45
2024/01/07 05:46:20;;;;;;;;;2.67;1.67;;;;;6.58;65.32;101531.28;4977068;28;45375;-43
2024/01/07 05:48:48;;;;;;;;;1.00;1.00;;;;;6.58;66.10;101538.38;4977237;28;45328;-45
2024/01/07 05:51:14;;;;;;;;;1.67;1.67;;;;;6.58;65.96;101533.09;4976669;28;47105;-43
2024/01/07 05:53:40;;;;;;;;;2.67;2.00;;;;;6.56;66.07;101530.53;4976611;28;45441;-43
2024/01/07 05:56:05;;;;;;;;;2.00;2.00;;;;;6.56;66.23;101530.53;4976623;28;45310;-43
2024/01/07 05:58:31;;;;;;;;;1.00;1.00;;;;;6.55;66.13;101520.91;4976543;28;45296;-44
2024/01/07 06:00:56;;;;;;;;;1.00;1.00;;;;;6.55;66.46;101528.84;4976482;28;46274;-43
2024/01/07 06:03:22;;;;;;;;;2.00;2.00;;;;;6.53;66.32;101528.09;4976512;28;45233;-44
2024/01/07 06:05:47;;;;;;;;;3.00;2.00;;;;;6.55;66.14;101533.28;4976528;28;45342;-44
2024/01/07 06:08:13;;;;;;;;;5.25;1.25;;;;;6.58;66.37;101541.88;4977054;28;45383;-43
2024/01/07 06:10:39;;;;;;;;;2.00;2.00;;;;;6.59;66.11;101540.91;4976255;28;46281;-43
2024/01/07 06:13:04;;;;;;;;;6.00;1.50;;;;;6.58;65.92;101541.88;4976430;28;45382;-43
2024/01/07 06:15:29;;;;;;;;;6.50;2.50;;;;;6.55;66.61;101538.56;4976299;28;45362;-43
2024/01/07 06:17:55;;;;;;;;;2.00;1.25;;;;;6.56;66.62;101540.25;4976580;28;45224;-42
2024/01/07 06:20:21;;;;;;;;;1.00;1.00;;;;;6.56;66.76;101543.75;4975913;28;46169;-42
2024/01/07 06:22:46;;;;;;;;;5.00;4.00;;;;;6.59;66.45;101546.19;4976205;28;45425;-42
2024/01/07 06:25:11;;;;;;;;;3.50;2.00;;;;;6.59;66.84;101542.72;4976411;28;45367;-45
2024/01/07 06:27:38;;;;;;;;;7.75;4.75;;;;;6.43;66.13;101519.06;4976503;28;45462;-42
2024/01/07 06:30:05;;;;;;;;;5.00;4.00;;;;;6.57;66.37;101549.88;4976105;28;46155;-42
2024/01/07 06:32:32;;;;;;;;;6.75;2.00;;;;;6.54;66.26;101535.09;4974637;28;45382;-42
2024/01/07 06:34:57;;;;;;;;;6.75;4.00;;;;;6.57;66.16;101541.94;4974870;28;45344;-43
2024/01/07 06:37:23;;;;;;;;;2.00;2.00;;;;;6.56;66.48;101538.47;4976253;28;45459;-43
2024/01/07 06:39:48;;;;;;;;;4.00;4.00;;;;;6.56;66.96;101540.25;4974429;28;45463;-43
2024/01/07 06:42:13;;;;;;;;;11.25;11.00;;;;;6.56;66.92;101546.38;4976092;28;45356;-43
2024/01/07 06:44:38;;;;;;;;;6.00;4.50;;;;;6.54;66.26;101528.94;4975868;28;45511;-42
2024/01/07 06:47:04;;;;;;;;;2.00;2.00;;;;;6.55;66.82;101544.69;4977961;28;45304;-43
2024/01/07 06:49:29;;;;;;;;;3.75;2.50;;;;;6.56;67.00;101543.75;4979372;28;46403;-43
2024/01/07 06:51:54;;;;;;;;;0.75;0.75;;;;;6.56;67.14;101551.69;4979025;28;48510;-43
2024/01/07 06:54:20;;;;;;;;;2.00;2.00;;;;;6.53;66.77;101549.25;4979420;28;45287;-44
2024/01/07 06:56:45;;;;;;;;;4.75;4.75;;;;;6.54;67.53;101561.53;4979693;28;45261;-43
2024/01/07 06:59:10;;;;;;;;;1.00;1.00;;;;;6.53;67.64;101561.59;4979069;28;46322;-42
2024/01/07 07:01:36;;;;;;;;;6.00;2.50;;;;;6.51;67.35;101564.34;4979262;28;45343;-42
2024/01/07 07:04:01;;;;;;;;;4.75;4.75;;;;;6.47;67.35;101571.63;4979169;28;45216;-43
2024/01/07 07:06:26;;;;;;;;;1.00;1.00;;;;;6.46;67.86;101577.03;4979136;28;45170;-43
2024/01/07 07:08:52;;;;;;;;;4.00;4.00;;;;;6.29;67.89;101549.06;4978720;28;49180;-43
2024/01/07 07:11:17;;;;;;;;;4.00;1.50;;;;;6.36;67.69;101563.56;4978909;28;45477;-43
2024/01/07 07:13:43;;;;;;;;;6.75;4.75;;;;;6.42;67.51;101586.09;4979189;28;45423;-43
2024/01/07 07:16:08;;;;;;;;;4.25;4.00;;;;;6.40;66.98;101582.69;4979122;28;45358;-43
2024/01/07 07:18:33;;;;;;;;;3.50;1.50;;;;;6.38;67.95;101582.81;4978890;28;46032;-43
2024/01/07 07:20:59;;;;;;;;;4.00;2.00;;;;;6.39;67.82;101586.28;4978601;28;45548;-43
2024/01/07 07:23:24;;;;;;;;;2.67;2.00;;;;;6.38;67.42;101595.19;4978852;28;45398;-42
2024/01/07 07:25:49;;;;;;;;;1.67;1.67;;;;;6.32;67.38;101585.84;4979089;28;45422;-44
2024/01/07 07:28:17;;;;;;;;;4.00;4.00;;;;;6.37;68.04;101601.41;4977992;28;45352;-43
2024/01/07 07:30:42;;;;;;;;;8.50;4.50;;;;;6.39;67.44;101608.28;4978901;28;45249;-43
2024/01/07 07:33:07;;;;;;;;;4.50;1.75;;;;;6.39;67.21;101597.72;4978569;28;45290;-43
2024/01/07 07:35:33;;;;;;;;;2.00;2.00;;;;;6.38;67.45;101609.22;4978943;28;45182;-42
2024/01/07 07:37:58;;;;;;;;;7.75;2.00;;;;;6.37;66.92;101604.91;4978400;28;45986;-44
2024/01/07 07:40:23;;;;;;;;;16.50;9.50;;;;;6.34;67.26;101591.03;4978106;28;45246;-42
2024/01/07 07:42:49;;;;;;;;;5.00;3.33;;;;;6.37;67.07;101602.25;4978721;28;45355;-43
2024/01/07 07:45:14;;;;;;;;;3.00;3.00;;;;;6.36;66.76;101608.50;4978903;28;45391;-43
2024/01/07 07:47:44;;;;;;;;;7.25;2.50;;;;;6.35;66.46;101605.94;4978158;28;46173;-44
2024/01/07 07:50:10;;;;;;;;;4.25;4.25;;;;;6.18;66.30;101584.06;4978387;28;45465;-43
2024/01/07 07:52:35;;;;;;;;;3.25;2.00;;;;;6.32;66.20;101607.00;4978155;28;45506;-43
2024/01/07 07:55:01;;;;;;;;;5.00;4.25;;;;;6.30;66.28;101602.75;4978612;28;45425;-43
2024/01/07 07:57:26;;;;;;;;;5.50;5.00;;;;;6.32;66.13;101614.03;4978130;28;45536;-43
2024/01/07 07:59:52;;;;;;;;;4.50;4.00;;;;;6.34;65.96;101614.81;4977432;28;45288;-44
2024/01/07 08:02:18;;;;;;;;;4.75;4.75;;;;;6.33;65.85;101623.69;4977967;28;45248;-42
2024/01/07 08:04:43;;;;;;;;;5.00;5.00;;;;;6.31;65.98;101628.22;4978358;28;45383;-40
2024/01/07 08:07:09;;;;;;;;;7.00;5.00;;;;;6.30;65.52;101618.59;4978042;28;45385;-41
2024/01/07 08:09:38;;;;;;;;;45.25;29.75;;;;;6.33;65.84;101628.97;4978061;28;45474;-43
2024/01/07 08:12:05;;;;;;;;;11.25;8.00;;;;;6.14;66.07;101601.06;4978155;28;45492;-41
2024/01/07 08:14:31;;;;;;;;;3.50;3.50;;;;;6.32;65.23;101633.41;4978354;28;45379;-42
2024/01/07 08:16:57;;;;;;;;;8.50;5.00;;;;;6.30;65.78;101631.81;4977904;28;45356;-41
2024/01/07 08:19:22;;;;;;;;;8.75;6.75;;;;;6.34;65.85;101638.59;4978062;28;45248;-40
2024/01/07 08:21:47;;;;;;;;;16.25;12.75;;;;;6.34;65.40;101643.88;4977765;28;45209;-41
2024/01/07 08:24:13;;;;;;;;;9.00;6.50;;;;;6.34;65.34;101644.72;4978280;28;45363;-41
2024/01/07 08:26:38;;;;;;;;;4.50;4.50;;;;;6.39;65.84;101644.44;4977774;28;46125;-40
2024/01/07 08:29:04;;;;;;;;;6.25;6.25;;;;;6.37;65.59;101647.19;4977612;28;45429;-40
2024/01/07 08:31:30;;;;;;;;;5.75;5.75;;;;;6.36;64.73;101639.34;4976884;28;45302;-41
2024/01/07 08:33:55;;;;;;;;;11.75;5.00;;;;;6.40;65.17;101644.31;4978229;28;45832;-40
2024/01/07 08:36:21;;;;;;;;;8.75;5.50;;;;;6.44;65.35;101652.91;4977445;28;45485;-41
2024/01/07 08:38:46;;;;;;;;;8.75;6.25;;;;;6.43;65.52;101644.13;4977500;28;45312;-41
2024/01/07 08:41:11;;;;;;;;;14.25;6.00;;;;;6.34;64.34;101641.25;4977894;28;45376;-41
2024/01/07 08:43:38;;;;;;;;;13.75;8.00;;;;;6.49;63.52;101651.69;4978160;28;45719;-42
2024/01/07 08:46:07;;;;;;;;;9.75;7.75;;;;;6.47;64.91;101647.44;4977568;28;45430;-41
2024/01/07 08:48:32;;;;;;;;;9.00;9.00;;;;;6.47;63.55;101652.72;4977387;28;45340;-41
2024/01/07 08:50:57;;;;;;;;;10.00;7.75;;;;;6.58;63.40;101657.34;4977566;28;45392;-43
2024/01/07 08:53:23;;;;;;;;;8.25;6.00;;;;;6.60;63.38;101661.56;4976338;28;45244;-42
2024/01/07 08:55:48;;;;;;;;;8.00;4.25;;;;;6.61;62.73;101660.59;4977553;28;45967;-41
2024/01/07 08:58:17;;;;;;;;;3.50;2.00;;;;;6.63;63.08;101671.09;4977616;28;45381;-42
2024/01/07 09:00:42;;;;;;;;;7.50;6.00;;;;;6.62;63.74;101670.25;4976352;28;45350;-42
2024/01/07 09:03:08;;;;;;;;;9.00;6.25;;;;;6.67;63.85;101665.50;4977578;28;45512;-41
2024/01/07 09:05:33;;;;;;;;;7.00;7.00;;;;;6.68;64.42;101661.91;4977192;28;46361;-42
2024/01/07 09:08:00;;;;;;;;;6.25;6.25;;;;;6.75;63.71;101671.16;4977061;28;45405;-41
2024/01/07 09:10:26;;;;;;;;;8.00;8.00;;;;;6.82;64.16;101670.75;4976380;28;45303;-42
2024/01/07 09:12:53;;;;;;;;;12.00;7.00;;;;;6.85;64.16;101674.03;4977649;28;45300;-42
2024/01/07 09:15:19;;;;;;;;;11.00;10.00;;;;;6.86;62.70;101681.03;4976935;28;46168;-42
2024/01/07 09:17:44;;;;;;;;;10.50;8.75;;;;;6.86;62.30;101678.38;4977145;28;45285;-42
2024/01/07 09:20:10;;;;;;;;;11.25;6.75;;;;;6.83;62.14;101678.59;4976960;28;45415;-42
2024/01/07 09:22:35;;;;;;;;;12.50;9.75;;;;;6.75;61.20;101665.03;4977299;28;45418;-41
2024/01/07 09:25:03;;;;;;;;;13.25;9.25;;;;;6.65;61.95;101659.47;4976995;28;46111;-43
2024/01/07 09:27:29;;;;;;;;;15.75;11.00;;;;;6.77;61.64;101681.63;4977283;28;45397;-40
2024/01/07 09:29:54;;;;;;;;;9.00;8.00;;;;;6.78;62.19;101683.31;4977030;28;45349;-41
2024/01/07 09:32:20;;;;;;;;;9.25;9.25;;;;;6.79;62.07;101681.56;4977166;28;45546;-41
2024/01/07 09:34:45;;;;;;;;;11.50;11.50;;;;;6.83;62.20;101690.97;4977051;28;46097;-41
2024/01/07 09:37:10;;;;;;;;;8.00;8.00;;;;;6.86;61.83;101693.41;4976796;28;45291;-41
2024/01/07 09:39:40;;;;;;;;;12.75;11.75;;;;;6.89;61.39;101693.22;4976827;28;45638;-40
2024/01/07 09:42:11;;;;;;;;;12.00;10.75;;;;;6.87;61.31;101697.75;4977224;28;45647;-41
2024/01/07 09:44:37;;;;;;;;;9.75;9.00;;;;;6.85;61.06;101699.66;4976551;28;46285;-42
2024/01/07 09:47:05;;;;;;;;;12.75;12.75;;;;;6.82;61.26;101698.03;4976895;28;45303;-42
2024/01/07 09:49:31;;;;;;;;;16.75;9.75;;;;;6.79;62.00;101694.78;4976915;28;45433;-41
2024/01/07 09:52:01;;;;;;;;;6.00;4.75;;;;;6.81;61.92;101695.50;4976793;28;45653;-40
2024/01/07 09:54:27;;;;;;;;;16.00;12.75;;;;;6.81;60.80;101691.06;4977041;28;46233;-44
2024/01/07 09:57:01;;;;;;;;;15.00;11.00;;;;;6.87;62.05;101706.53;4976218;28;45513;-41
2024/01/07 09:59:29;;;;;;;;;17.50;12.50;;;;;6.86;61.04;101703.97;4976648;28;45337;-43
2024/01/07 10:01:55;;;;;;;;;16.25;13.50;;;;;6.88;61.02;101710.03;4976637;28;45325;-40
2024/01/07 10:04:21;;;;;;;;;19.00;9.00;;;;;6.84;61.58;101704.09;4976358;28;45319;-41
2024/01/07 10:06:48;;;;;;;;;9.25;7.75;;;;;6.83;61.26;101712.97;4976262;28;45513;-41
2024/01/07 10:09:15;;;;;;;;;18.75;14.25;;;;;6.84;61.55;101705.91;4976547;28;45299;-42
2024/01/07 10:11:40;;;;;;;;;17.25;10.50;;;;;6.85;61.20;101707.59;4976655;28;45313;-41
2024/01/07 10:14:05;;;;;;;;;14.50;12.25;;;;;6.88;61.53;101715.31;4976328;28;46089;-41
2024/01/07 10:16:32;;;;;;;;;15.75;12.00;;;;;6.87;61.42;101708.31;4976338;28;45483;-42
2024/01/07 10:18:58;;;;;;;;;17.25;14.50;;;;;6.90;61.73;101714.25;4976561;28;45442;-47
2024/01/07 10:21:23;;;;;;;;;14.75;11.00;;;;;6.93;61.72;101711.44;4977291;28;45404;-40
2024/01/07 10:23:48;;;;;;;;;9.25;7.75;;;;;6.96;61.03;101716.53;4979520;28;46184;-41
2024/01/07 10:26:14;;;;;;;;;17.25;14.00;;;;;6.96;60.50;101718.31;4979941;28;45344;-41
2024/01/07 10:28:40;;;;;;;;;16.50;10.75;;;;;6.98;61.12;101719.91;4979828;28;45195;-41
2024/01/07 10:31:06;;;;;;;;;18.00;15.00;;;;;6.99;61.49;101723.41;4980032;28;45366;-42
2024/01/07 10:33:32;;;;;;;;;16.25;9.50;;;;;6.98;61.90;101727.00;4979624;28;47009;-42
2024/01/07 10:36:03;;;;;;;;;14.50;12.50;;;;;6.93;61.04;101722.00;4979686;28;45532;-45
2024/01/07 10:38:29;;;;;;;;;15.50;12.50;;;;;6.94;61.49;101720.22;4960431;28;45392;-44
2024/01/07 10:40:58;;;;;;;;;12.75;10.00;;;;;6.92;61.80;101720.31;4962423;28;45375;-44
2024/01/07 10:43:28;;;;;;;;;9.25;9.25;;;;;6.89;60.84;101717.03;4978834;28;45954;-47
2024/01/07 10:45:55;;;;;;;;;22.00;16.00;;;;;6.82;61.17;101715.72;4979311;28;45461;-42
2024/01/07 10:48:23;;;;;;;;;17.50;13.50;;;;;6.78;61.27;101706.28;4979100;28;45402;-43
2024/01/07 10:50:53;;;;;;;;;13.75;10.50;;;;;6.80;62.05;101718.47;4979173;28;45323;-43
2024/01/07 10:53:21;;;;;;;;;19.75;15.25;;;;;6.77;61.75;101721.28;4978815;28;45267;-43
2024/01/07 10:55:55;;;;;;;;;15.00;13.75;;;;;6.74;61.10;101709.13;4979274;28;45911;-42
2024/01/07 10:58:21;;;;;;;;;20.25;14.50;;;;;6.79;61.99;101718.56;4978879;28;45427;-43
2024/01/07 11:00:48;;;;;;;;;13.50;13.50;;;;;6.76;61.43;101716.97;4979136;28;45548;-42
2024/01/07 11:03:31;;;;;;;;;18.75;16.25;;;;;6.77;61.34;101721.28;4978820;28;47135;-42
2024/01/07 11:06:05;;;;;;;;;13.25;13.00;;;;;6.70;61.26;101718.22;4978876;28;45506;-43
2024/01/07 11:08:54;;;;;;;;;16.75;12.75;;;;;6.68;61.56;101722.72;4978644;28;45528;-42
2024/01/07 11:11:26;;;;;;;;;22.25;18.25;;;;;6.63;61.55;101729.25;4978917;28;45377;-43
2024/01/07 11:13:51;;;;;;;;;23.75;17.00;;;;;6.56;61.53;101731.44;4978588;28;46047;-43
2024/01/07 11:16:38;;;;;;;;;28.00;20.50;;;;;6.47;61.82;101730.22;4978531;28;45329;-44
2024/01/07 11:19:04;;;;;;;;;29.25;20.25;;;;;6.44;62.25;101729.56;4978732;28;45319;-46
2024/01/07 11:21:29;;;;;;;;;12.00;11.00;;;;;6.41;61.96;101727.13;4978677;28;45398;-42
2024/01/07 11:23:55;;;;;;;;;23.25;18.50;;;;;6.44;61.71;101727.75;4978443;28;46025;-43